Kenova, West Virginia
Current Conditions -  °F | °C
As of 1:51 PM on Saturday 25 Oct 2014 (Local Time) from KHTS Reporting Station
Overcast Overcast  
Wind Chill: 62°   Ceiling: 3600
Heat Index: 62°   Visibility: 10mi
Dew Point: 49°   Wind: 6mph
Humidity: 62%   Direction: 200°SSW
Pressure: 29.97"   Gusts: NA
Location:  38.4°N, 82.58°W
Report Text: KHTS 251751Z 20005KT 10SM BKN036 OVC046 17/09 A2997 RMK AO2 SLP150 T01670094 10172 20050 58022
Loading
Personal Weather Stations






























Interactive Weather Map
Tropical Storm Tracking
New forecast layout! Learn more

10-Day Weather Forecast

Advertisements
Track Severe Weather on mobile